createdAt,value
2023-03-12T00:03:21.349Z,27.30
2023-03-12T00:08:26.066Z,29.10
2023-03-12T00:13:34.633Z,38.90
2023-03-12T00:18:38.083Z,36.60
2023-03-12T00:23:41.196Z,29.70
2023-03-12T00:28:43.562Z,25.60
2023-03-12T00:33:46.937Z,23.30
2023-03-12T00:38:49.347Z,26.90
2023-03-12T00:44:11.351Z,22.10
2023-03-12T00:49:16.731Z,24.10
2023-03-12T00:54:39.185Z,26.00
2023-03-12T00:59:42.964Z,32.00
2023-03-12T01:04:45.532Z,23.10
2023-03-12T01:09:50.787Z,23.90
2023-03-12T01:14:54.160Z,21.50
2023-03-12T01:19:56.486Z,21.20
2023-03-12T01:24:59.020Z,19.70
2023-03-12T01:30:03.068Z,23.10
2023-03-12T01:35:06.319Z,23.40
2023-03-12T01:40:14.199Z,23.80
2023-03-12T01:46:11.128Z,27.20
2023-03-12T01:51:16.041Z,26.80
2023-03-12T01:56:20.837Z,30.90
2023-03-12T02:01:25.492Z,23.70
2023-03-12T02:06:37.720Z,32.20
2023-03-12T02:11:40.971Z,36.10
2023-03-12T02:16:44.620Z,28.00
2023-03-12T02:21:47.053Z,32.30
2023-03-12T02:26:49.951Z,30.70
2023-03-12T02:31:56.675Z,28.30
2023-03-12T02:37:00.158Z,36.10
2023-03-12T02:42:03.063Z,31.50
2023-03-12T02:47:06.037Z,32.20
2023-03-12T02:52:08.409Z,28.80
2023-03-12T02:57:10.386Z,23.80
2023-03-12T03:02:13.084Z,19.90
2023-03-12T03:07:17.406Z,22.50
2023-03-12T03:12:20.167Z,23.70
2023-03-12T03:17:24.584Z,24.40
2023-03-12T03:22:26.924Z,15.60
2023-03-12T03:27:29.963Z,15.90
2023-03-12T03:32:32.212Z,17.70
2023-03-12T03:37:34.881Z,17.00
2023-03-12T03:42:37.452Z,17.00
2023-03-12T03:47:39.474Z,14.00
2023-03-12T03:52:42.158Z,14.40
2023-03-12T03:57:44.773Z,15.20
2023-03-12T04:02:47.790Z,19.70
2023-03-12T04:07:53.247Z,18.30
2023-03-12T04:12:57.001Z,23.10
2023-03-12T04:17:59.135Z,24.00
2023-03-12T04:23:01.851Z,21.10
2023-03-12T04:28:04.811Z,16.10
2023-03-12T04:33:07.562Z,19.80
2023-03-12T04:38:10.752Z,17.80
2023-03-12T04:43:13.827Z,14.50
2023-03-12T04:48:15.987Z,13.80
2023-03-12T04:53:20.602Z,17.70
2023-03-12T04:58:24.158Z,16.70
2023-03-12T05:03:26.617Z,17.20
2023-03-12T05:08:29.725Z,16.90
2023-03-12T05:13:32.015Z,15.80
2023-03-12T05:18:34.742Z,18.70
2023-03-12T05:23:39.673Z,17.00
2023-03-12T05:28:42.801Z,11.60
2023-03-12T05:33:46.675Z,12.50
2023-03-12T05:38:49.121Z,11.50
2023-03-12T05:43:56.780Z,9.20
2023-03-12T05:48:59.217Z,10.40
2023-03-12T05:54:02.259Z,10.60
2023-03-12T05:59:05.002Z,14.00
2023-03-12T06:04:08.430Z,14.90
2023-03-12T06:09:10.430Z,13.60
2023-03-12T06:14:13.286Z,14.20
2023-03-12T06:19:15.702Z,13.30
2023-03-12T06:24:20.172Z,14.90
2023-03-12T06:29:32.352Z,12.10
2023-03-12T06:34:35.558Z,15.60
2023-03-12T06:39:38.730Z,14.20
2023-03-12T06:44:40.639Z,14.60
2023-03-12T06:49:43.144Z,15.00
2023-03-12T06:54:46.043Z,15.50
2023-03-12T06:59:50.567Z,17.90
2023-03-12T07:04:52.740Z,16.20
2023-03-12T07:09:55.164Z,15.60
2023-03-12T07:14:57.496Z,14.90
2023-03-12T07:20:00.260Z,12.20
2023-03-12T07:25:02.230Z,12.60
2023-03-12T07:30:05.809Z,11.70
2023-03-12T07:35:08.733Z,12.90
2023-03-12T07:40:20.325Z,15.30
2023-03-12T07:45:26.038Z,13.40
2023-03-12T07:50:30.822Z,11.40
2023-03-12T07:55:35.158Z,11.10
2023-03-12T08:00:37.658Z,8.70
2023-03-12T08:05:55.452Z,9.50
2023-03-12T08:11:04.605Z,8.80
2023-03-12T08:16:09.615Z,8.40
2023-03-12T08:21:16.488Z,6.90
2023-03-12T08:26:19.462Z,8.20
2023-03-12T08:31:25.150Z,6.00
2023-03-12T08:36:27.394Z,6.60
2023-03-12T08:41:30.279Z,5.60
2023-03-12T08:46:33.239Z,4.10
2023-03-12T08:51:35.827Z,5.80
2023-03-12T08:56:42.020Z,5.60
2023-03-12T09:01:44.114Z,6.80
2023-03-12T09:06:47.432Z,4.90
2023-03-12T09:11:52.116Z,5.10
2023-03-12T09:17:00.678Z,5.20
2023-03-12T09:22:03.498Z,6.40
2023-03-12T09:27:09.292Z,4.80
2023-03-12T09:32:15.348Z,5.90
2023-03-12T09:37:23.605Z,3.50
2023-03-12T09:42:49.556Z,4.90
2023-03-12T09:48:04.310Z,6.90
2023-03-12T09:53:33.610Z,6.50
2023-03-12T09:58:39.604Z,4.30
2023-03-12T10:04:05.700Z,4.60
2023-03-12T10:09:45.877Z,4.30
2023-03-12T10:15:02.513Z,4.40
2023-03-12T10:21:11.258Z,4.60
2023-03-12T10:27:14.722Z,5.10
2023-03-12T10:32:33.444Z,3.90
2023-03-12T10:37:50.286Z,2.60
2023-03-12T10:42:56.602Z,3.70
2023-03-12T10:48:10.548Z,4.30
2023-03-12T10:53:35.854Z,5.20
2023-03-12T11:03:47.285Z,4.20
2023-03-12T11:09:26.029Z,4.10
2023-03-12T11:14:33.646Z,4.60
2023-03-12T11:19:40.602Z,4.90
2023-03-12T11:25:00.971Z,4.60
2023-03-12T11:30:11.175Z,3.90
2023-03-12T11:35:17.418Z,3.70
2023-03-12T11:40:52.457Z,6.00
2023-03-12T11:46:32.941Z,3.60
2023-03-12T11:52:09.385Z,6.30
2023-03-12T11:57:39.747Z,4.90
2023-03-12T12:03:24.296Z,4.10
2023-03-12T12:08:46.957Z,4.00
2023-03-12T12:14:27.462Z,4.70
2023-03-12T12:20:07.752Z,3.60
2023-03-12T12:25:23.936Z,4.60
2023-03-12T12:31:09.193Z,4.90
2023-03-12T12:36:14.501Z,5.40
2023-03-12T12:41:31.513Z,3.50
2023-03-12T12:46:45.253Z,4.00
2023-03-12T12:51:54.625Z,2.90
2023-03-12T12:57:21.508Z,4.00
2023-03-12T13:02:31.749Z,4.10
2023-03-12T13:07:44.723Z,2.90
2023-03-12T13:12:58.836Z,3.60
2023-03-12T13:18:07.971Z,3.40
2023-03-12T13:23:31.163Z,5.00
2023-03-12T13:29:11.197Z,2.70
2023-03-12T13:34:48.416Z,1.70
2023-03-12T13:40:01.864Z,2.70
2023-03-12T13:46:10.720Z,4.50
2023-03-12T13:51:28.604Z,4.90
2023-03-12T13:56:34.590Z,4.90
2023-03-12T14:01:49.954Z,5.20
2023-03-12T14:07:15.689Z,8.20
2023-03-12T14:12:38.716Z,6.50
2023-03-12T14:17:45.507Z,7.40
2023-03-12T14:23:17.691Z,8.30
2023-03-12T14:28:23.946Z,9.50
2023-03-12T14:33:34.101Z,7.20
2023-03-12T14:38:49.211Z,8.00
2023-03-12T14:43:55.031Z,7.10
2023-03-12T14:48:57.884Z,8.50
2023-03-12T14:54:03.404Z,7.60
2023-03-12T14:59:36.928Z,6.20
2023-03-12T15:04:46.971Z,6.10
2023-03-12T15:10:05.153Z,5.20
2023-03-12T15:15:11.293Z,3.30
2023-03-12T15:20:16.446Z,3.50
2023-03-12T15:25:28.771Z,3.60
2023-03-12T15:30:45.759Z,4.30
2023-03-12T15:36:43.552Z,3.50
2023-03-12T15:41:52.068Z,4.20
2023-03-12T15:47:06.234Z,4.10
2023-03-12T15:52:41.360Z,5.30
2023-03-12T15:57:49.067Z,8.10
2023-03-12T16:03:00.756Z,8.10
2023-03-12T16:08:36.030Z,8.20
2023-03-12T16:13:39.151Z,9.60
2023-03-12T16:18:47.405Z,8.80
2023-03-12T16:23:52.862Z,10.30
2023-03-12T16:28:55.448Z,11.30
2023-03-12T16:34:01.016Z,12.80
2023-03-12T16:39:12.596Z,13.70
2023-03-12T16:44:22.269Z,11.90
2023-03-12T16:49:28.040Z,10.30
2023-03-12T16:54:30.868Z,16.10
2023-03-12T16:59:38.086Z,10.60
2023-03-12T17:04:40.248Z,9.00
2023-03-12T17:09:42.222Z,8.90
2023-03-12T17:14:48.770Z,10.70
2023-03-12T17:19:53.822Z,11.60
2023-03-12T17:24:55.784Z,11.50
2023-03-12T17:29:57.772Z,13.60
2023-03-12T17:35:03.296Z,13.40
2023-03-12T17:40:11.154Z,18.50
2023-03-12T17:45:23.596Z,16.00
2023-03-12T17:50:26.172Z,19.70
2023-03-12T17:55:40.620Z,26.80
2023-03-12T18:00:45.871Z,17.20
2023-03-12T18:05:51.385Z,19.50
2023-03-12T18:10:56.447Z,16.20
2023-03-12T18:16:01.626Z,17.70
2023-03-12T18:21:03.904Z,19.20
2023-03-12T18:26:06.654Z,20.90
2023-03-12T18:31:09.558Z,19.70
2023-03-12T18:36:14.354Z,20.70
2023-03-12T18:41:16.910Z,24.60
2023-03-12T18:46:19.541Z,21.00
2023-03-12T18:51:22.100Z,21.20
2023-03-12T18:56:25.774Z,20.80
2023-03-12T19:01:30.974Z,19.00
2023-03-12T19:06:48.101Z,18.30
2023-03-12T19:11:55.523Z,21.10
2023-03-12T19:16:57.603Z,22.70
2023-03-12T19:22:02.551Z,23.10
2023-03-12T19:27:08.555Z,18.00
2023-03-12T19:32:10.794Z,17.30
2023-03-12T19:37:12.741Z,18.90
2023-03-12T19:42:20.278Z,18.50
2023-03-12T19:47:22.551Z,17.30
2023-03-12T19:52:25.365Z,16.50
2023-03-12T19:57:27.995Z,16.70
2023-03-12T20:02:30.750Z,17.00
2023-03-12T20:07:33.556Z,17.70
2023-03-12T20:12:37.368Z,20.10
2023-03-12T20:17:39.831Z,18.00
2023-03-12T20:22:42.044Z,16.70
2023-03-12T20:27:47.572Z,20.10
2023-03-12T20:32:49.736Z,15.40
2023-03-12T20:37:52.134Z,16.60
2023-03-12T20:42:54.621Z,12.90
2023-03-12T20:47:59.372Z,15.40
2023-03-12T20:53:01.783Z,14.30
2023-03-12T20:58:04.532Z,16.10
2023-03-12T21:03:07.090Z,14.40
2023-03-12T21:08:10.152Z,15.60
2023-03-12T21:13:12.640Z,12.30
2023-03-12T21:18:14.706Z,12.50
2023-03-12T21:23:17.308Z,8.60
2023-03-12T21:28:20.183Z,9.20
2023-03-12T21:33:22.383Z,7.30
2023-03-12T21:38:25.590Z,7.60
2023-03-12T21:43:29.289Z,7.70
2023-03-12T21:48:32.276Z,7.20
2023-03-12T21:53:35.415Z,7.80
2023-03-12T21:58:37.749Z,8.00
2023-03-12T22:03:41.970Z,6.80
2023-03-12T22:08:47.115Z,6.20
2023-03-12T22:13:53.452Z,6.70
2023-03-12T22:18:57.058Z,7.50
2023-03-12T22:24:02.523Z,7.90
2023-03-12T22:29:06.784Z,7.70
2023-03-12T22:34:09.617Z,7.00
2023-03-12T22:39:12.332Z,7.50
2023-03-12T22:44:15.163Z,7.10
2023-03-12T22:49:32.607Z,7.30
2023-03-12T22:54:37.112Z,7.70
2023-03-12T22:59:42.233Z,8.60
2023-03-12T23:04:44.700Z,6.80
2023-03-12T23:09:47.684Z,5.60
2023-03-12T23:14:50.217Z,7.70
2023-03-12T23:19:52.763Z,8.40
2023-03-12T23:25:05.300Z,7.10
2023-03-12T23:30:10.015Z,8.40
2023-03-12T23:35:12.879Z,6.70
2023-03-12T23:40:19.424Z,7.00
2023-03-12T23:45:22.818Z,9.50
2023-03-12T23:50:25.539Z,8.00
2023-03-12T23:55:28.427Z,7.10
